Time;durP1;ratioP1;P1;durP2;ratioP2;P2;SDS_P1;SDS_P2;PMS_P1;PMS_P2;Temp;Humidity;BMP_temperature;BMP_pressure;BME280_temperature;BME280_humidity;BME280_pressure;Samples;Min_cycle;Max_cycle;Signal;HPM_P1;HPM_P2
2022/04/16 00:02:19;;;;;;;7.37;3.43;;;;;;;;;;5094501;28;20636;-79
2022/04/16 00:04:47;;;;;;;4.90;3.43;;;;;;;;;;5094457;28;20238;-79
2022/04/16 00:07:15;;;;;;;3.40;3.10;;;;;;;;;;5094122;28;20695;-80
2022/04/16 00:09:42;;;;;;;7.00;3.47;;;;;;;;;;5094038;28;20265;-79
2022/04/16 00:12:10;;;;;;;6.20;2.97;;;;;;;;;;5092736;28;20236;-80
2022/04/16 00:14:38;;;;;;;3.70;3.27;;;;;;;;;;5093927;28;20207;-79
2022/04/16 00:17:07;;;;;;;4.43;3.53;;;;;;;;;;5093923;28;20223;-80
2022/04/16 00:19:34;;;;;;;4.23;3.43;;;;;;;;;;5094037;28;20202;-80
2022/04/16 00:22:07;;;;;;;4.27;3.80;;;;;;;;;;5093860;28;20196;-80
2022/04/16 00:24:34;;;;;;;7.77;4.00;;;;;;;;;;5093644;28;20180;-79
2022/04/16 00:27:01;;;;;;;5.00;3.30;;;;;;;;;;5094347;28;20228;-80
2022/04/16 00:29:30;;;;;;;4.80;3.23;;;;;;;;;;5093687;28;20196;-80
2022/04/16 00:31:57;;;;;;;5.37;3.53;;;;;;;;;;5093835;28;20240;-80
2022/04/16 00:34:26;;;;;;;7.50;3.87;;;;;;;;;;5093471;28;20196;-80
2022/04/16 00:36:53;;;;;;;5.23;3.20;;;;;;;;;;5093283;28;20269;-79
2022/04/16 00:39:20;;;;;;;7.40;3.47;;;;;;;;;;5093140;28;20200;-80
2022/04/16 00:41:47;;;;;;;4.60;3.83;;;;;;;;;;5093761;28;20192;-80
2022/04/16 00:44:15;;;;;;;3.73;3.10;;;;;;;;;;5093605;28;20274;-79
2022/04/16 00:46:42;;;;;;;5.73;3.47;;;;;;;;;;5093404;28;20202;-80
2022/04/16 00:49:09;;;;;;;3.70;3.40;;;;;;;;;;5093406;28;20236;-80
2022/04/16 00:51:38;;;;;;;6.97;3.57;;;;;;;;;;5092957;28;20664;-80
2022/04/16 00:54:05;;;;;;;4.10;3.63;;;;;;;;;;5093435;28;20215;-79
2022/04/16 00:56:32;;;;;;;4.80;4.23;;;;;;;;;;5093137;28;20204;-79
2022/04/16 00:59:00;;;;;;;4.40;4.00;;;;;;;;;;5093291;28;20638;-80
2022/04/16 01:01:27;;;;;;;4.40;4.07;;;;;;;;;;5092899;28;20192;-80
2022/04/16 01:03:54;;;;;;;4.03;3.50;;;;;;;;;;5093235;28;20604;-79
2022/04/16 01:06:21;;;;;;;5.40;3.73;;;;;;;;;;5092974;28;20249;-80
2022/04/16 01:08:51;;;;;;;4.00;3.67;;;;;;;;;;5093111;28;20236;-80
2022/04/16 01:11:18;;;;;;;6.80;3.47;;;;;;;;;;5093087;28;20288;-79
2022/04/16 01:13:48;;;;;;;7.23;4.40;;;;;;;;;;5093132;28;20200;-80
2022/04/16 01:16:15;;;;;;;5.63;3.67;;;;;;;;;;5092991;28;20677;-79
2022/04/16 01:18:47;;;;;;;5.17;3.70;;;;;;;;;;5093021;28;20621;-79
2022/04/16 01:21:14;;;;;;;3.23;2.93;;;;;;;;;;5092465;28;20238;-81
2022/04/16 01:23:43;;;;;;;4.93;3.70;;;;;;;;;;5092570;28;20279;-80
2022/04/16 01:26:10;;;;;;;7.00;3.27;;;;;;;;;;5092824;28;20215;-80
2022/04/16 01:28:37;;;;;;;7.10;3.97;;;;;;;;;;5092856;28;20196;-80
2022/04/16 01:31:04;;;;;;;4.17;3.40;;;;;;;;;;5092379;28;20223;-81
2022/04/16 01:33:32;;;;;;;3.97;3.67;;;;;;;;;;5092826;28;20196;-78
2022/04/16 01:35:59;;;;;;;7.63;4.20;;;;;;;;;;5092324;28;20199;-79
2022/04/16 01:38:26;;;;;;;4.60;3.80;;;;;;;;;;5092237;28;20311;-78
2022/04/16 01:40:56;;;;;;;4.90;3.10;;;;;;;;;;5092220;28;20199;-78
2022/04/16 01:43:23;;;;;;;4.10;3.70;;;;;;;;;;5092374;28;20665;-79
2022/04/16 01:45:50;;;;;;;4.23;3.40;;;;;;;;;;5092399;28;20192;-79
2022/04/16 01:48:19;;;;;;;3.77;3.40;;;;;;;;;;5092640;28;20188;-79
2022/04/16 01:50:46;;;;;;;3.93;3.20;;;;;;;;;;5092108;28;20204;-79
2022/04/16 01:53:13;;;;;;;4.27;3.87;;;;;;;;;;5092323;28;20192;-79
2022/04/16 01:55:41;;;;;;;3.90;3.30;;;;;;;;;;5091895;28;20665;-79
2022/04/16 01:58:09;;;;;;;3.50;3.10;;;;;;;;;;5092444;28;20267;-79
2022/04/16 02:00:36;;;;;;;3.33;3.00;;;;;;;;;;5091954;28;20556;-79
2022/04/16 02:03:04;;;;;;;3.67;3.37;;;;;;;;;;5091931;28;20295;-79
2022/04/16 02:05:31;;;;;;;4.07;3.47;;;;;;;;;;5091923;28;20287;-79
2022/04/16 02:07:58;;;;;;;4.67;3.23;;;;;;;;;;5092071;28;20283;-79
2022/04/16 02:10:26;;;;;;;4.77;3.17;;;;;;;;;;5091864;28;20287;-79
2022/04/16 02:12:53;;;;;;;6.60;3.47;;;;;;;;;;5091818;28;20200;-79
2022/04/16 02:15:22;;;;;;;4.83;3.60;;;;;;;;;;5091855;28;20192;-79
2022/04/16 02:17:49;;;;;;;4.10;3.60;;;;;;;;;;5091949;28;20630;-79
2022/04/16 02:20:16;;;;;;;4.47;3.57;;;;;;;;;;5091878;28;20196;-79
2022/04/16 02:22:44;;;;;;;5.60;3.87;;;;;;;;;;5091948;28;20202;-79
2022/04/16 02:25:13;;;;;;;4.37;3.73;;;;;;;;;;5091883;28;20207;-79
2022/04/16 02:27:40;;;;;;;3.73;3.30;;;;;;;;;;5091738;28;20196;-80
2022/04/16 02:30:09;;;;;;;6.67;3.67;;;;;;;;;;5092062;28;20223;-80
2022/04/16 02:32:39;;;;;;;3.80;3.20;;;;;;;;;;5091596;28;20198;-80
2022/04/16 02:35:07;;;;;;;5.70;2.93;;;;;;;;;;5092610;28;20200;-81
2022/04/16 02:37:34;;;;;;;3.87;3.57;;;;;;;;;;5095525;28;20267;-80
2022/04/16 02:40:02;;;;;;;3.93;3.53;;;;;;;;;;5095955;28;20219;-80
2022/04/16 02:42:29;;;;;;;6.33;4.20;;;;;;;;;;5095793;28;20200;-80
2022/04/16 02:47:42;;;;;;;3.60;3.30;;;;;;;;;;5096125;28;20694;-80
2022/04/16 02:50:10;;;;;;;4.23;3.23;;;;;;;;;;5095549;28;20242;-81
2022/04/16 02:52:39;;;;;;;4.13;3.70;;;;;;;;;;5095379;28;20228;-80
2022/04/16 02:55:07;;;;;;;4.27;3.87;;;;;;;;;;5095490;28;20201;-80
2022/04/16 02:57:34;;;;;;;4.17;3.53;;;;;;;;;;5095440;28;20266;-80
2022/04/16 03:00:02;;;;;;;4.30;3.13;;;;;;;;;;5095237;28;20711;-80
2022/04/16 03:02:29;;;;;;;6.10;4.50;;;;;;;;;;5095276;28;20573;-80
2022/04/16 03:04:57;;;;;;;5.43;4.60;;;;;;;;;;5095491;28;20205;-81
2022/04/16 03:07:25;;;;;;;6.30;5.10;;;;;;;;;;5094993;28;20223;-81
2022/04/16 03:09:52;;;;;;;5.50;4.30;;;;;;;;;;5094949;28;20201;-80
2022/04/16 03:12:19;;;;;;;5.10;4.40;;;;;;;;;;5095210;28;20198;-80
2022/04/16 03:17:34;;;;;;;23.00;20.13;;;;;;;;;;5095440;28;20199;-81
2022/04/16 03:20:04;;;;;;;11.13;8.30;;;;;;;;;;5095051;28;20220;-81
2022/04/16 03:22:33;;;;;;;7.47;6.30;;;;;;;;;;5095097;28;20184;-81
2022/04/16 03:25:00;;;;;;;6.53;4.47;;;;;;;;;;5095274;28;20200;-81
2022/04/16 03:27:27;;;;;;;6.20;3.97;;;;;;;;;;5094905;28;20192;-81
2022/04/16 03:29:55;;;;;;;4.53;3.83;;;;;;;;;;5094729;28;20680;-80
2022/04/16 03:32:22;;;;;;;4.63;4.23;;;;;;;;;;5094780;28;20291;-80
2022/04/16 03:34:49;;;;;;;4.90;3.97;;;;;;;;;;5094605;28;20202;-80
2022/04/16 03:37:18;;;;;;;4.20;3.30;;;;;;;;;;5094592;28;20263;-80
2022/04/16 03:39:45;;;;;;;6.40;4.10;;;;;;;;;;5094821;28;20192;-80
2022/04/16 03:42:12;;;;;;;5.03;3.97;;;;;;;;;;5094687;28;20204;-81
2022/04/16 03:44:40;;;;;;;4.17;3.70;;;;;;;;;;5094598;28;20203;-80
2022/04/16 03:47:07;;;;;;;7.23;3.97;;;;;;;;;;5094518;28;20755;-81
2022/04/16 03:49:34;;;;;;;4.60;4.20;;;;;;;;;;5094841;28;20196;-80
2022/04/16 03:52:01;;;;;;;4.80;3.80;;;;;;;;;;5094561;28;20296;-80
2022/04/16 04:00:03;;;;;;;6.77;5.27;;;;;;;;;;5094340;28;20699;-81
2022/04/16 04:02:33;;;;;;;4.97;4.47;;;;;;;;;;5091428;28;20203;-83
2022/04/16 04:05:02;;;;;;;4.70;4.30;;;;;;;;;;5094058;28;20224;-81
2022/04/16 04:07:29;;;;;;;8.57;5.30;;;;;;;;;;5094221;28;20204;-81
2022/04/16 04:09:58;;;;;;;9.07;5.30;;;;;;;;;;5093896;28;20192;-82
2022/04/16 04:12:25;;;;;;;10.67;5.30;;;;;;;;;;5094024;28;20558;-81
2022/04/16 04:14:53;;;;;;;5.97;4.67;;;;;;;;;;5093577;28;20208;-81
2022/04/16 04:17:20;;;;;;;5.50;5.00;;;;;;;;;;5093805;28;20218;-81
2022/04/16 04:19:48;;;;;;;6.23;3.90;;;;;;;;;;5093508;28;20198;-80
2022/04/16 04:22:16;;;;;;;4.67;4.00;;;;;;;;;;5093471;28;20641;-81
2022/04/16 04:24:44;;;;;;;8.03;4.33;;;;;;;;;;5093590;28;20199;-83
2022/04/16 04:27:13;;;;;;;4.33;3.80;;;;;;;;;;5093551;28;20201;-84
2022/04/16 04:29:41;;;;;;;4.63;4.13;;;;;;;;;;5093639;28;20199;-84
2022/04/16 04:32:09;;;;;;;5.33;4.17;;;;;;;;;;5093745;28;20254;-84
2022/04/16 04:34:36;;;;;;;5.17;4.13;;;;;;;;;;5093437;28;20200;-84
2022/04/16 04:37:04;;;;;;;5.00;4.10;;;;;;;;;;5093288;28;20238;-85
2022/04/16 04:39:31;;;;;;;5.27;4.63;;;;;;;;;;5092976;28;20220;-83
2022/04/16 04:41:58;;;;;;;9.27;5.87;;;;;;;;;;5091343;28;20283;-81
2022/04/16 04:44:27;;;;;;;7.53;6.63;;;;;;;;;;5092784;28;20193;-81
2022/04/16 04:46:54;;;;;;;6.53;4.57;;;;;;;;;;5093158;28;20219;-82
2022/04/16 04:49:22;;;;;;;5.23;4.40;;;;;;;;;;5093217;28;20192;-82
2022/04/16 04:51:49;;;;;;;7.93;4.67;;;;;;;;;;5093660;28;20192;-81
2022/04/16 04:54:16;;;;;;;6.67;4.40;;;;;;;;;;5092984;28;20685;-82
2022/04/16 04:56:44;;;;;;;11.80;4.20;;;;;;;;;;5093595;28;20203;-82
2022/04/16 04:59:11;;;;;;;4.90;4.20;;;;;;;;;;5092056;28;20230;-82
2022/04/16 05:01:40;;;;;;;4.47;3.60;;;;;;;;;;5093323;28;20589;-83
2022/04/16 05:04:07;;;;;;;6.20;4.80;;;;;;;;;;5092869;28;20204;-84
2022/04/16 05:06:34;;;;;;;4.13;3.70;;;;;;;;;;5092858;28;20204;-84
2022/04/16 05:09:01;;;;;;;4.03;3.47;;;;;;;;;;5092710;28;20195;-81
2022/04/16 05:11:29;;;;;;;4.30;3.90;;;;;;;;;;5093089;28;20275;-81
2022/04/16 05:13:56;;;;;;;4.63;4.20;;;;;;;;;;5092778;28;20206;-85
2022/04/16 05:16:23;;;;;;;15.40;3.90;;;;;;;;;;5092730;28;20201;-83
2022/04/16 05:18:52;;;;;;;3.93;3.53;;;;;;;;;;5092836;28;20255;-81
2022/04/16 05:21:19;;;;;;;7.63;6.27;;;;;;;;;;5092300;28;20200;-82
2022/04/16 05:23:46;;;;;;;119.10;59.70;;;;;;;;;;5092487;28;20196;-83
2022/04/16 05:26:13;;;;;;;61.57;32.77;;;;;;;;;;5092255;28;20198;-83
2022/04/16 05:28:41;;;;;;;17.40;10.23;;;;;;;;;;5092974;28;20196;-82
2022/04/16 05:31:09;;;;;;;16.53;7.37;;;;;;;;;;5090006;28;20581;-82
2022/04/16 05:36:22;;;;;;;8.23;7.13;;;;;;;;;;5090584;28;20195;-82
2022/04/16 05:38:49;;;;;;;10.80;6.77;;;;;;;;;;5091986;28;20299;-82
2022/04/16 05:41:17;;;;;;;13.53;7.57;;;;;;;;;;5091420;28;20204;-82
2022/04/16 05:43:44;;;;;;;11.50;8.47;;;;;;;;;;5092331;28;20198;-82
2022/04/16 05:46:11;;;;;;;13.33;8.30;;;;;;;;;;5092335;28;20200;-83
2022/04/16 05:48:38;;;;;;;10.17;4.53;;;;;;;;;;5092253;28;20685;-83
2022/04/16 05:51:06;;;;;;;5.33;3.87;;;;;;;;;;5091854;28;20202;-82
2022/04/16 05:53:35;;;;;;;5.60;3.60;;;;;;;;;;5092781;28;20550;-84
2022/04/16 05:56:02;;;;;;;5.93;4.37;;;;;;;;;;5092035;28;20192;-83
2022/04/16 05:58:29;;;;;;;5.43;3.30;;;;;;;;;;5091947;28;20708;-82
2022/04/16 06:00:57;;;;;;;4.87;3.50;;;;;;;;;;5091968;28;20199;-83
2022/04/16 06:03:24;;;;;;;13.27;4.40;;;;;;;;;;5092048;28;20243;-84
2022/04/16 06:05:52;;;;;;;3.93;3.30;;;;;;;;;;5091904;28;20689;-83
2022/04/16 06:08:19;;;;;;;6.60;3.77;;;;;;;;;;5092016;28;20192;-83
2022/04/16 06:10:48;;;;;;;5.47;3.47;;;;;;;;;;5091562;28;20208;-83
2022/04/16 06:13:15;;;;;;;14.93;5.80;;;;;;;;;;5092121;28;20210;-81
2022/04/16 06:15:45;;;;;;;5.23;4.50;;;;;;;;;;5091779;28;20586;-81
2022/04/16 06:18:13;;;;;;;5.67;4.87;;;;;;;;;;5091756;28;20196;-82
2022/04/16 06:20:40;;;;;;;11.63;8.23;;;;;;;;;;5091421;28;20199;-81
2022/04/16 06:23:08;;;;;;;21.80;12.83;;;;;;;;;;5091910;28;20668;-81
2022/04/16 06:25:38;;;;;;;6.17;5.57;;;;;;;;;;5091630;28;20282;-82
2022/04/16 06:28:10;;;;;;;5.63;4.13;;;;;;;;;;5091773;28;20211;-82
2022/04/16 06:30:37;;;;;;;7.30;4.20;;;;;;;;;;5091409;28;20207;-82
2022/04/16 06:33:07;;;;;;;4.83;3.90;;;;;;;;;;5091766;28;20723;-82
2022/04/16 06:35:34;;;;;;;5.73;3.60;;;;;;;;;;5091381;28;20196;-83
2022/04/16 06:38:01;;;;;;;13.47;3.90;;;;;;;;;;5091510;28;20616;-80
2022/04/16 06:40:29;;;;;;;5.13;4.17;;;;;;;;;;5091354;28;20206;-81
2022/04/16 06:42:56;;;;;;;4.67;2.90;;;;;;;;;;5091540;28;20196;-81
2022/04/16 06:45:24;;;;;;;4.93;3.20;;;;;;;;;;5091508;28;20196;-81
2022/04/16 06:47:52;;;;;;;12.30;4.60;;;;;;;;;;5092248;28;20193;-81
2022/04/16 06:50:25;;;;;;;8.97;5.50;;;;;;;;;;5091429;28;20203;-81
2022/04/16 06:52:55;;;;;;;9.23;3.47;;;;;;;;;;5091670;28;20197;-81
2022/04/16 06:55:23;;;;;;;5.00;3.80;;;;;;;;;;5091264;28;20207;-81
2022/04/16 06:57:50;;;;;;;5.63;3.47;;;;;;;;;;5091608;28;20203;-81
2022/04/16 07:00:25;;;;;;;5.07;4.10;;;;;;;;;;5091300;28;20220;-81
2022/04/16 07:02:52;;;;;;;4.43;4.03;;;;;;;;;;5091486;28;20287;-81
2022/04/16 07:05:32;;;;;;;8.27;4.73;;;;;;;;;;5091321;28;20683;-81
2022/04/16 07:07:59;;;;;;;7.80;4.40;;;;;;;;;;5091223;28;20253;-81
2022/04/16 07:10:26;;;;;;;5.83;3.23;;;;;;;;;;5091241;28;20196;-81
2022/04/16 07:12:53;;;;;;;3.97;3.50;;;;;;;;;;5091463;28;20196;-82
2022/04/16 07:15:20;;;;;;;5.50;4.00;;;;;;;;;;5091408;28;20197;-83
2022/04/16 07:17:49;;;;;;;6.80;3.50;;;;;;;;;;5091387;28;20641;-83
2022/04/16 07:20:16;;;;;;;6.50;3.20;;;;;;;;;;5091258;28;20231;-83
2022/04/16 07:22:43;;;;;;;4.67;2.90;;;;;;;;;;5094945;28;20662;-82
2022/04/16 07:25:11;;;;;;;4.00;3.30;;;;;;;;;;5094676;28;20203;-82
2022/04/16 07:27:38;;;;;;;4.53;3.53;;;;;;;;;;5095283;28;20198;-81
2022/04/16 07:30:06;;;;;;;3.67;3.33;;;;;;;;;;5094837;28;20203;-81
2022/04/16 07:32:33;;;;;;;5.80;3.70;;;;;;;;;;5094804;28;20202;-81
2022/04/16 07:35:01;;;;;;;6.03;4.47;;;;;;;;;;5094368;28;20205;-81
2022/04/16 07:37:28;;;;;;;7.10;3.67;;;;;;;;;;5094672;28;20224;-82
2022/04/16 07:39:56;;;;;;;3.87;3.17;;;;;;;;;;5094467;28;20220;-82
2022/04/16 07:42:26;;;;;;;6.47;4.00;;;;;;;;;;5094669;28;20687;-81
2022/04/16 07:44:53;;;;;;;5.43;4.37;;;;;;;;;;5094627;28;20227;-81
2022/04/16 07:47:24;;;;;;;7.43;5.37;;;;;;;;;;5094300;28;20210;-82
2022/04/16 07:49:51;;;;;;;10.70;6.30;;;;;;;;;;5094370;28;20193;-81
2022/04/16 07:52:19;;;;;;;8.23;5.53;;;;;;;;;;5094255;28;20641;-82
2022/04/16 07:54:47;;;;;;;8.07;5.27;;;;;;;;;;5094015;28;20200;-82
2022/04/16 07:57:15;;;;;;;10.27;5.73;;;;;;;;;;5094182;28;20203;-81
2022/04/16 07:59:42;;;;;;;11.67;6.33;;;;;;;;;;5094374;28;20273;-81
2022/04/16 08:02:09;;;;;;;13.37;7.50;;;;;;;;;;5094444;28;20207;-82
2022/04/16 08:04:36;;;;;;;8.93;5.73;;;;;;;;;;5094026;28;20196;-81
2022/04/16 08:07:04;;;;;;;9.43;5.97;;;;;;;;;;5094073;28;20207;-81
2022/04/16 08:09:32;;;;;;;11.80;6.83;;;;;;;;;;5093934;28;20200;-82
2022/04/16 08:12:00;;;;;;;8.97;6.27;;;;;;;;;;5094099;28;20196;-82
2022/04/16 08:14:30;;;;;;;14.20;6.50;;;;;;;;;;5093556;28;20295;-81
2022/04/16 08:17:07;;;;;;;9.73;6.43;;;;;;;;;;5094310;28;20189;-81
2022/04/16 08:19:34;;;;;;;12.27;6.47;;;;;;;;;;5093586;28;20726;-81
2022/04/16 08:22:07;;;;;;;11.83;7.43;;;;;;;;;;5093423;28;20196;-82
2022/04/16 08:24:42;;;;;;;10.90;5.73;;;;;;;;;;5093454;28;20631;-82
2022/04/16 08:27:09;;;;;;;9.20;5.53;;;;;;;;;;5093783;28;20180;-81
2022/04/16 08:29:42;;;;;;;9.53;5.80;;;;;;;;;;5093775;28;20196;-81
2022/04/16 08:32:10;;;;;;;13.70;6.60;;;;;;;;;;5093074;28;20197;-81
2022/04/16 08:34:37;;;;;;;11.17;7.07;;;;;;;;;;5092722;28;20239;-81
2022/04/16 08:37:05;;;;;;;8.03;5.67;;;;;;;;;;5093441;28;20246;-81
2022/04/16 08:39:32;;;;;;;9.63;5.73;;;;;;;;;;5093338;28;20223;-83
2022/04/16 08:42:00;;;;;;;11.87;5.63;;;;;;;;;;5093773;28;20214;-83
2022/04/16 08:44:28;;;;;;;6.87;5.10;;;;;;;;;;5093472;28;20200;-81
2022/04/16 08:46:55;;;;;;;13.77;6.73;;;;;;;;;;5093732;28;20234;-81
2022/04/16 08:49:23;;;;;;;9.40;6.03;;;;;;;;;;5093153;28;20199;-80
2022/04/16 08:52:00;;;;;;;9.20;6.10;;;;;;;;;;5093602;28;20284;-80
2022/04/16 08:54:27;;;;;;;6.37;5.50;;;;;;;;;;5092902;28;20202;-82
2022/04/16 08:56:54;;;;;;;9.53;7.33;;;;;;;;;;5092997;28;20195;-83
2022/04/16 08:59:23;;;;;;;8.50;6.33;;;;;;;;;;5092789;28;20310;-81
2022/04/16 09:01:50;;;;;;;10.27;6.50;;;;;;;;;;5092785;28;20287;-85
2022/04/16 09:04:20;;;;;;;13.80;7.67;;;;;;;;;;5092894;28;20208;-81
2022/04/16 09:06:57;;;;;;;8.60;7.70;;;;;;;;;;5093046;28;20200;-82
2022/04/16 09:09:25;;;;;;;9.37;6.20;;;;;;;;;;5093108;28;20212;-82
2022/04/16 09:11:52;;;;;;;13.07;9.87;;;;;;;;;;5092895;28;20196;-81
2022/04/16 09:14:19;;;;;;;22.33;10.77;;;;;;;;;;5092236;28;20195;-81
2022/04/16 09:17:00;;;;;;;9.43;6.70;;;;;;;;;;5092836;28;20203;-81
2022/04/16 09:19:30;;;;;;;11.87;7.07;;;;;;;;;;5092513;28;20231;-81
2022/04/16 09:21:58;;;;;;;9.90;6.90;;;;;;;;;;5092667;28;20200;-82
2022/04/16 09:24:25;;;;;;;9.63;6.47;;;;;;;;;;5092278;28;20206;-81
2022/04/16 09:26:53;;;;;;;16.07;6.23;;;;;;;;;;5092656;28;20752;-82
2022/04/16 09:29:20;;;;;;;8.70;5.50;;;;;;;;;;5092453;28;20680;-81
2022/04/16 09:31:53;;;;;;;12.27;5.60;;;;;;;;;;5092490;28;20210;-81
2022/04/16 09:34:28;;;;;;;7.53;5.40;;;;;;;;;;5092590;28;20279;-82
2022/04/16 09:36:56;;;;;;;10.80;6.53;;;;;;;;;;5092138;28;20242;-82
2022/04/16 09:39:23;;;;;;;6.90;5.77;;;;;;;;;;5092549;28;20307;-81
2022/04/16 09:41:52;;;;;;;6.93;6.23;;;;;;;;;;5092289;28;20652;-81
2022/04/16 09:44:22;;;;;;;9.13;6.33;;;;;;;;;;5091639;28;20228;-81
2022/04/16 09:46:50;;;;;;;9.93;5.70;;;;;;;;;;5092612;28;20278;-82
2022/04/16 09:49:18;;;;;;;9.27;5.03;;;;;;;;;;5092065;28;20208;-82
2022/04/16 09:51:47;;;;;;;9.87;6.57;;;;;;;;;;5092320;28;20222;-81
2022/04/16 09:54:15;;;;;;;7.03;5.67;;;;;;;;;;5092096;28;20582;-81
2022/04/16 09:56:52;;;;;;;6.13;4.47;;;;;;;;;;5092493;28;20192;-82
2022/04/16 09:59:24;;;;;;;11.80;6.27;;;;;;;;;;5091759;28;20196;-81
2022/04/16 10:01:51;;;;;;;6.20;5.13;;;;;;;;;;5091898;28;20196;-81
2022/04/16 10:04:19;;;;;;;6.53;4.93;;;;;;;;;;5092220;28;20602;-81
2022/04/16 10:06:51;;;;;;;5.47;4.20;;;;;;;;;;5092036;28;20196;-82
2022/04/16 10:09:22;;;;;;;4.43;3.60;;;;;;;;;;5091880;28;20184;-82
2022/04/16 10:14:42;;;;;;;11.47;4.47;;;;;;;;;;5091970;28;20175;-82
2022/04/16 10:17:20;;;;;;;5.60;3.77;;;;;;;;;;5092907;28;20180;-82
2022/04/16 10:19:48;;;;;;;5.67;4.20;;;;;;;;;;5071338;28;20692;-82
2022/04/16 10:22:25;;;;;;;4.53;3.87;;;;;;;;;;5071654;28;20199;-82
2022/04/16 10:24:54;;;;;;;3.93;3.53;;;;;;;;;;5071565;28;20181;-82
2022/04/16 10:27:24;;;;;;;3.93;3.40;;;;;;;;;;5071580;28;20251;-82
2022/04/16 10:29:52;;;;;;;5.37;4.43;;;;;;;;;;5071369;28;20231;-82
2022/04/16 10:32:19;;;;;;;3.97;3.60;;;;;;;;;;5071409;28;20193;-81
2022/04/16 10:34:47;;;;;;;7.27;3.63;;;;;;;;;;5071195;28;20590;-81
2022/04/16 10:37:25;;;;;;;5.57;3.53;;;;;;;;;;5071604;28;20282;-82
2022/04/16 10:39:55;;;;;;;7.90;4.43;;;;;;;;;;5071599;28;20220;-82
2022/04/16 10:42:47;;;;;;;5.03;4.50;;;;;;;;;;5071246;28;20288;-81
2022/04/16 10:45:14;;;;;;;5.03;4.00;;;;;;;;;;5071298;28;20185;-82
2022/04/16 10:47:43;;;;;;;7.33;4.23;;;;;;;;;;5071809;28;20208;-81
2022/04/16 10:50:14;;;;;;;4.87;4.37;;;;;;;;;;5071223;28;20640;-82
2022/04/16 10:52:53;;;;;;;6.57;4.57;;;;;;;;;;5071747;28;20263;-82
2022/04/16 10:55:30;;;;;;;3.83;3.53;;;;;;;;;;5071391;28;20228;-81
2022/04/16 10:58:01;;;;;;;6.73;5.50;;;;;;;;;;5075605;28;20185;-81
2022/04/16 11:00:40;;;;;;;6.83;4.93;;;;;;;;;;5074918;28;20228;-82
2022/04/16 11:03:12;;;;;;;5.57;4.80;;;;;;;;;;5074850;28;20197;-83
2022/04/16 11:05:42;;;;;;;7.30;5.17;;;;;;;;;;5075199;28;20276;-82
2022/04/16 11:08:12;;;;;;;7.47;5.77;;;;;;;;;;5074959;28;20201;-83
2022/04/16 11:10:40;;;;;;;6.47;5.33;;;;;;;;;;5074825;28;20181;-82
2022/04/16 11:13:07;;;;;;;5.60;4.80;;;;;;;;;;5074742;28;20250;-82
2022/04/16 11:15:35;;;;;;;8.60;7.17;;;;;;;;;;5074707;28;20201;-83
2022/04/16 11:18:03;;;;;;;8.37;5.70;;;;;;;;;;5075111;28;20640;-82
2022/04/16 11:20:31;;;;;;;8.60;5.13;;;;;;;;;;5074584;28;20217;-82
2022/04/16 11:22:58;;;;;;;5.93;4.77;;;;;;;;;;5074480;28;20208;-82
2022/04/16 11:34:14;;;;;;;5.97;4.43;;;;;;;;;;5074839;28;20208;-82
2022/04/16 11:36:37;;;;;;;8.40;4.37;;;;;;;;;;5074500;28;20259;-81
2022/04/16 11:39:04;;;;;;;5.93;4.33;;;;;;;;;;5074381;28;20201;-80
2022/04/16 11:41:33;;;;;;;5.53;3.90;;;;;;;;;;5074527;28;20683;-83
2022/04/16 11:44:01;;;;;;;7.67;4.17;;;;;;;;;;5074567;28;20554;-81
2022/04/16 11:46:29;;;;;;;7.73;4.03;;;;;;;;;;5074374;28;20262;-81
2022/04/16 11:49:00;;;;;;;4.90;3.93;;;;;;;;;;5073952;28;20201;-81
2022/04/16 11:51:28;;;;;;;8.10;4.17;;;;;;;;;;5074533;28;20241;-81
2022/04/16 11:53:58;;;;;;;6.67;4.03;;;;;;;;;;5074115;28;20201;-81
2022/04/16 11:56:28;;;;;;;7.87;4.53;;;;;;;;;;5074551;28;20208;-81
2022/04/16 11:58:57;;;;;;;8.43;4.37;;;;;;;;;;5073845;28;20195;-81
2022/04/16 12:01:24;;;;;;;4.40;3.63;;;;;;;;;;5073891;28;20705;-82
2022/04/16 12:03:52;;;;;;;5.83;3.90;;;;;;;;;;5074230;28;20583;-81
2022/04/16 12:06:20;;;;;;;4.60;3.73;;;;;;;;;;5073897;28;20288;-80
2022/04/16 12:08:47;;;;;;;7.53;4.37;;;;;;;;;;5073782;28;20228;-81
2022/04/16 12:11:14;;;;;;;4.37;3.80;;;;;;;;;;5073785;28;20660;-81
2022/04/16 12:13:43;;;;;;;5.53;4.13;;;;;;;;;;5073812;28;20193;-81
2022/04/16 12:16:13;;;;;;;5.27;4.00;;;;;;;;;;5073673;28;20197;-81
2022/04/16 12:18:41;;;;;;;5.87;4.60;;;;;;;;;;5074063;28;20595;-81
2022/04/16 12:21:10;;;;;;;5.73;4.43;;;;;;;;;;5073698;28;20224;-81
2022/04/16 12:23:38;;;;;;;8.23;4.10;;;;;;;;;;5073636;28;20198;-81
2022/04/16 12:26:06;;;;;;;4.60;4.20;;;;;;;;;;5073422;28;20197;-81
2022/04/16 12:28:36;;;;;;;6.03;4.73;;;;;;;;;;5073619;28;20196;-81
2022/04/16 12:31:06;;;;;;;4.00;3.20;;;;;;;;;;5073263;28;20193;-81
2022/04/16 12:33:35;;;;;;;5.97;3.80;;;;;;;;;;5073466;28;20193;-81
2022/04/16 12:36:03;;;;;;;5.57;3.97;;;;;;;;;;5073237;28;20684;-81
2022/04/16 12:38:30;;;;;;;7.23;3.83;;;;;;;;;;5072917;28;20237;-81
2022/04/16 12:41:08;;;;;;;5.40;4.27;;;;;;;;;;5073066;28;20221;-81
2022/04/16 12:43:38;;;;;;;3.83;3.50;;;;;;;;;;5073587;28;20197;-81
2022/04/16 12:46:05;;;;;;;7.03;4.67;;;;;;;;;;5073003;28;20189;-81
2022/04/16 12:48:40;;;;;;;9.50;3.90;;;;;;;;;;5072935;28;20197;-81
2022/04/16 12:51:07;;;;;;;5.80;5.00;;;;;;;;;;5073361;28;20189;-82
2022/04/16 12:53:35;;;;;;;5.27;3.53;;;;;;;;;;5073057;28;20201;-82
2022/04/16 12:56:02;;;;;;;4.57;4.07;;;;;;;;;;5072564;28;20197;-82
2022/04/16 12:58:29;;;;;;;4.90;4.40;;;;;;;;;;5073196;28;20193;-82
2022/04/16 13:00:57;;;;;;;8.27;7.47;;;;;;;;;;5072731;28;20317;-82
2022/04/16 13:03:24;;;;;;;4.23;3.63;;;;;;;;;;5072809;28;20201;-82
2022/04/16 13:05:53;;;;;;;4.80;3.87;;;;;;;;;;5072519;28;20201;-82
2022/04/16 13:08:20;;;;;;;4.90;3.50;;;;;;;;;;5073050;28;20208;-82
2022/04/16 13:10:50;;;;;;;3.67;3.37;;;;;;;;;;5072578;28;20288;-82
2022/04/16 13:13:18;;;;;;;6.07;3.93;;;;;;;;;;5072727;28;20197;-82
2022/04/16 13:15:45;;;;;;;4.40;3.40;;;;;;;;;;5072387;28;20579;-82
2022/04/16 13:18:12;;;;;;;3.87;3.57;;;;;;;;;;5072799;28;20196;-82
2022/04/16 13:20:39;;;;;;;4.23;3.47;;;;;;;;;;5071668;28;20302;-82
2022/04/16 13:23:08;;;;;;;4.87;4.13;;;;;;;;;;5072807;28;20562;-82
2022/04/16 13:25:35;;;;;;;4.83;3.70;;;;;;;;;;5072238;28;20292;-82
2022/04/16 13:28:03;;;;;;;3.97;3.03;;;;;;;;;;5072140;28;20673;-82
2022/04/16 13:30:30;;;;;;;4.37;3.20;;;;;;;;;;5072340;28;20200;-82
2022/04/16 13:32:58;;;;;;;12.87;6.30;;;;;;;;;;5072206;28;20201;-81
2022/04/16 13:35:25;;;;;;;3.53;2.90;;;;;;;;;;5072166;28;20229;-82
2022/04/16 13:37:52;;;;;;;3.90;3.13;;;;;;;;;;5071547;28;20244;-82
2022/04/16 13:43:09;;;;;;;3.67;3.10;;;;;;;;;;5072360;28;20188;-82
2022/04/16 13:45:36;;;;;;;4.47;2.80;;;;;;;;;;5071967;28;20193;-82
2022/04/16 13:48:06;;;;;;;3.90;3.30;;;;;;;;;;5072056;28;20192;-81
2022/04/16 13:50:35;;;;;;;3.40;2.70;;;;;;;;;;5071846;28;20193;-82
2022/04/16 13:53:02;;;;;;;5.63;3.60;;;;;;;;;;5072308;28;20236;-82
2022/04/16 13:55:30;;;;;;;4.00;3.60;;;;;;;;;;5071812;28;20700;-82
2022/04/16 13:57:57;;;;;;;3.90;3.10;;;;;;;;;;5071727;28;20207;-81
2022/04/16 14:00:25;;;;;;;4.53;3.27;;;;;;;;;;5071773;28;20204;-82
2022/04/16 14:02:52;;;;;;;4.17;3.00;;;;;;;;;;5071995;28;20204;-82
2022/04/16 14:08:07;;;;;;;3.37;3.00;;;;;;;;;;5072228;28;20291;-82
2022/04/16 14:10:35;;;;;;;3.37;3.07;;;;;;;;;;5071633;28;20193;-82
2022/04/16 14:13:03;;;;;;;4.40;2.70;;;;;;;;;;5072080;28;20200;-82
2022/04/16 14:15:36;;;;;;;18.00;9.07;;;;;;;;;;5071816;28;20625;-82
2022/04/16 14:18:04;;;;;;;7.27;4.17;;;;;;;;;;5071637;28;20204;-81
2022/04/16 14:20:31;;;;;;;11.87;7.83;;;;;;;;;;5072006;28;20201;-82
2022/04/16 14:22:58;;;;;;;3.73;3.33;;;;;;;;;;5071721;28;20204;-82
2022/04/16 14:25:27;;;;;;;3.57;2.80;;;;;;;;;;5071327;28;20201;-82
2022/04/16 14:27:59;;;;;;;5.07;2.67;;;;;;;;;;5071894;28;20212;-81
2022/04/16 14:30:27;;;;;;;4.40;3.00;;;;;;;;;;5071251;28;20204;-82
2022/04/16 14:32:55;;;;;;;4.53;2.67;;;;;;;;;;5075628;28;20243;-82
2022/04/16 14:35:32;;;;;;;3.90;3.00;;;;;;;;;;5075558;28;20226;-82
2022/04/16 14:37:59;;;;;;;6.60;3.33;;;;;;;;;;5075510;28;20224;-82
2022/04/16 14:40:26;;;;;;;3.37;2.80;;;;;;;;;;5075098;28;20201;-82
2022/04/16 14:42:56;;;;;;;3.97;3.40;;;;;;;;;;5075828;28;20219;-82
2022/04/16 14:45:25;;;;;;;5.80;2.77;;;;;;;;;;5075427;28;20213;-82
2022/04/16 14:47:52;;;;;;;4.03;2.70;;;;;;;;;;5075274;28;20193;-82
2022/04/16 14:50:31;;;;;;;3.63;2.50;;;;;;;;;;5075507;28;20610;-82
2022/04/16 14:53:00;;;;;;;3.63;2.80;;;;;;;;;;5075721;28;20626;-82
2022/04/16 14:55:27;;;;;;;2.80;2.60;;;;;;;;;;5075375;28;20632;-82
2022/04/16 14:57:55;;;;;;;8.27;6.37;;;;;;;;;;5075170;28;20201;-82
2022/04/16 15:00:22;;;;;;;9.33;7.97;;;;;;;;;;5074652;28;20208;-82
2022/04/16 15:02:56;;;;;;;4.03;2.60;;;;;;;;;;5075144;28;20224;-82
2022/04/16 15:05:23;;;;;;;3.30;2.70;;;;;;;;;;5074919;28;20594;-82
2022/04/16 15:07:51;;;;;;;5.47;3.60;;;;;;;;;;5074951;28;20207;-82
2022/04/16 15:10:21;;;;;;;3.00;2.77;;;;;;;;;;5074641;28;20201;-82
2022/04/16 15:12:58;;;;;;;5.43;4.00;;;;;;;;;;5075285;28;20600;-82
2022/04/16 15:15:25;;;;;;;5.13;4.23;;;;;;;;;;5074637;28;20196;-82
2022/04/16 15:18:00;;;;;;;4.77;4.00;;;;;;;;;;5074714;28;20228;-82
2022/04/16 15:20:29;;;;;;;3.40;3.10;;;;;;;;;;5074621;28;20315;-82